Latest Weather Observations for Low Isles

IDQ60801

Issued at 4:35 pm EST Wednesday 26 November 2014 (issued every 30 minutes, with the page automatically refreshed every 10 minutes)

About weather observations | Map of weather stations | Latest weather observations for QLD | Other Formats
Station Details ID: 031037 Name: LOW ISLES LIGHTHOUSE Lat: -16.38 Lon: 145.56 Height: 2.9 m
Data from the previous 72 hours. | See also: Recent months at Low Isles
Date/Time
EST
Temp
°C
App
Temp
°C
Dew
Point
Rel
Hum
%
Delta-T
°C
Wind Press
QNH
hPa
Press
MSL
hPa
Rain
since 9 am
mm
Dir
 
Spd
km/h
Gust
km/h
Spd
kts
Gust
kts
26/04:30pm 30.0 30.9 22.7 65 5.0 ESE 22 28 12 15 1010.2 - 0.0
26/04:00pm 30.2 30.8 22.1 62 5.5 ESE 22 28 12 15 1010.0 - 0.0
26/03:30pm 30.7 31.6 22.6 62 5.5 ESE 22 26 12 14 1010.1 - 0.0
26/03:00pm 31.0 31.7 22.3 60 5.9 ESE 22 26 12 14 1010.1 1010.0 0.0
26/02:30pm 31.7 32.5 22.4 58 6.3 ESE 22 28 12 15 1010.3 - 0.0
26/02:00pm 31.3 32.0 22.3 58 6.1 ESE 22 28 12 15 1010.5 - 0.0
26/01:30pm 31.4 31.6 22.1 57 6.3 E 24 30 13 16 1010.6 - 0.0
26/01:00pm 31.7 32.3 22.1 56 6.5 E 22 30 12 16 1010.9 - 0.0
26/12:30pm 31.8 32.4 22.8 59 6.2 E 24 32 13 17 1011.1 - 0.0
26/12:00pm 31.7 32.2 22.7 59 6.2 E 24 32 13 17 1011.2 1011.1 0.0
26/11:30am 30.2 30.6 22.4 63 5.3 E 24 32 13 17 1011.3 - 0.0
26/11:00am 32.0 33.4 23.5 60 5.9 E 22 28 12 15 1011.6 - 0.0
26/10:30am 30.1 32.7 23.3 67 4.7 ESE 15 20 8 11 1011.9 - 0.0
26/10:00am 31.0 32.9 23.4 64 5.2 ESE 19 24 10 13 1011.8 - 0.0
26/09:30am 30.4 31.7 23.3 66 4.9 ESE 22 26 12 14 1011.8 - 0.0
26/09:00am 28.7 29.8 23.1 71 3.8 SE 22 26 12 14 1011.7 1011.6 0.0
26/08:30am 28.8 29.9 23.0 71 4.0 ESE 22 30 12 16 1011.5 - 0.0
26/08:00am 28.1 31.7 23.7 77 3.0 SSE 11 19 6 10 1011.2 - 0.0
26/07:30am 27.1 29.3 23.3 80 2.6 SSE 17 20 9 11 1011.0 - 0.0
26/07:00am 27.2 28.9 23.0 78 2.9 SE 19 22 10 12 1010.6 - 0.0
26/06:30am 26.2 26.9 22.9 82 2.2 S 24 28 13 15 1010.2 - 0.0
26/06:00am 26.1 27.5 22.8 82 2.2 SSE 20 26 11 14 1010.0 1009.9 0.0
26/05:30am 26.0 27.7 23.1 84 2.0 SSE 19 22 10 12 1009.8 - 0.0
26/05:00am 25.9 27.3 22.8 83 2.1 SE 20 26 11 14 1009.6 - 0.0
26/04:30am 26.0 27.2 22.5 81 2.4 SE 20 26 11 14 1009.4 - 0.0
26/04:00am 26.0 27.2 22.5 81 2.4 SE 20 26 11 14 1009.5 - 0.0
26/03:30am 26.2 27.6 22.5 80 2.5 SE 19 22 10 12 1009.5 - 0.0
26/03:00am 26.2 27.2 22.1 78 2.8 ESE 20 28 11 15 1009.4 1009.3 0.0
26/02:30am 26.4 27.6 22.5 79 2.6 SE 20 26 11 14 1009.6 - 0.0
26/02:00am 26.3 27.1 22.4 79 2.6 SE 22 26 12 14 1009.7 - 0.0
26/01:30am 26.5 27.1 22.8 80 2.5 SE 24 28 13 15 1009.9 - 0.0
26/01:00am 26.5 27.4 22.6 79 2.6 SE 22 28 12 15 1010.2 - 0.0
26/12:30am 26.6 27.1 22.7 79 2.6 SE 24 28 13 15 1010.6 - 0.0
26/12:00am 26.7 27.4 23.0 80 2.5 SE 24 30 13 16 1010.9 1010.8 0.0
 
Date/Time
EST
Temp
°C
App
Temp
°C
Dew
Point
Rel
Hum
%
Delta-T
°C
Wind Press
QNH
hPa
Press
MSL
hPa
Rain
since 9 am
mm
Dir
 
Spd
km/h
Gust
km/h
Spd
kts
Gust
kts
25/11:30pm 26.7 27.0 23.0 80 2.5 SE 26 30 14 16 1011.3 - 0.0
25/11:00pm 26.7 27.3 22.8 79 2.6 ESE 24 32 13 17 1011.7 - 0.0
25/10:30pm 26.6 27.5 22.7 79 2.6 ESE 22 28 12 15 1012.1 - 0.0
25/10:00pm 26.8 27.8 22.8 79 2.7 ESE 22 28 12 15 1012.3 - 0.0
25/09:30pm 26.9 28.2 22.7 78 2.8 ESE 20 26 11 14 1012.1 - 0.0
25/09:00pm 27.0 27.9 22.6 77 3.0 ESE 22 28 12 15 1011.7 1011.6 0.0
25/08:30pm 26.9 28.0 22.3 76 3.1 ESE 20 24 11 13 1011.5 - 0.0
25/08:00pm 26.9 28.2 22.3 76 3.1 ESE 19 24 10 13 1011.3 - 0.0
25/07:30pm 27.0 27.9 22.0 74 3.4 ESE 20 24 11 13 1011.0 - 0.0
25/07:00pm 27.2 28.1 22.6 76 3.1 ESE 22 28 12 15 1010.5 - 0.0
25/06:30pm 27.4 28.3 22.6 75 3.2 ESE 22 28 12 15 1010.2 - 0.0
25/06:00pm 28.0 29.3 22.7 73 3.6 ESE 20 26 11 14 1010.1 1010.0 0.0
25/05:30pm 28.6 29.2 22.1 68 4.4 ESE 22 28 12 15 1009.9 - 0.0
25/05:00pm 29.5 30.7 23.2 69 4.3 ESE 22 28 12 15 1009.8 - 0.0
25/04:30pm 29.6 29.9 22.3 65 4.9 ESE 24 30 13 16 1009.8 - 0.0
25/04:00pm 30.0 31.1 22.4 63 5.2 ESE 20 26 11 14 1009.8 - 0.0
25/03:30pm 30.3 31.0 22.2 62 5.5 SE 22 26 12 14 1009.8 - 0.0
25/03:00pm 30.6 31.5 22.7 62 5.4 ESE 22 28 12 15 1009.8 1009.7 0.0
25/02:30pm 30.8 31.6 22.4 61 5.7 SE 22 26 12 14 1010.0 - 0.0
25/02:00pm 31.2 32.0 22.5 60 5.9 SE 22 26 12 14 1010.3 - 0.0
25/01:30pm 31.5 32.5 21.7 56 6.6 ESE 19 26 10 14 1010.7 - 0.0
25/01:00pm 30.9 32.1 22.2 59 5.9 SE 19 24 10 13 1011.1 - 0.0
25/12:30pm 31.5 32.9 21.9 56 6.5 ESE 17 24 9 13 1011.3 - 0.0
25/12:00pm 31.5 33.1 22.2 57 6.3 ESE 17 22 9 12 1011.5 1011.4 0.0
25/11:30am 31.6 33.3 22.3 57 6.3 ESE 17 24 9 13 1011.7 - 0.0
25/11:00am 31.1 32.7 22.1 58 6.1 ESE 17 20 9 11 1012.0 - 0.0
25/10:30am 30.8 33.0 21.9 59 6.0 ESE 13 19 7 10 1012.0 - 0.0
25/10:00am 30.7 32.4 22.3 61 5.7 ESE 17 24 9 13 1012.3 - 0.0
25/09:30am 30.0 31.6 22.2 63 5.3 ESE 17 20 9 11 1012.4 - 0.0
25/09:00am 29.5 30.3 21.4 61 5.4 ESE 19 24 10 13 1012.5 1012.4 2.8
25/08:30am 29.6 30.4 21.8 63 5.3 E 20 24 11 13 1012.5 - 2.8
25/08:00am 29.1 30.4 22.6 68 4.4 ESE 20 24 11 13 1012.3 - 2.6
25/07:30am 28.6 29.9 22.3 68 4.3 E 19 24 10 13 1012.1 - 2.6
25/07:00am 27.7 29.0 22.6 74 3.5 E 20 24 11 13 1011.9 - 2.6
25/06:30am 26.9 28.1 22.5 77 3.0 E 20 24 11 13 1011.7 - 2.6
25/06:00am 26.1 27.4 22.6 81 2.4 E 20 28 11 15 1011.3 1011.2 2.6
25/05:30am 26.0 27.3 22.7 82 2.2 E 20 22 11 12 1011.0 - 2.6
25/05:00am 25.9 27.0 22.4 81 2.4 ESE 20 26 11 14 1010.8 - 2.6
25/04:30am 25.8 27.0 22.5 82 2.2 ESE 20 24 11 13 1010.5 - 2.6
25/04:00am 25.9 26.9 22.8 83 2.1 E 22 26 12 14 1010.5 - 2.6
25/03:30am 25.9 27.6 22.4 81 2.4 ESE 17 24 9 13 1010.5 - 2.6
25/03:00am 25.9 27.7 22.6 82 2.2 ESE 17 22 9 12 1010.3 1010.2 2.6
25/02:30am 26.0 27.2 22.5 81 2.4 ESE 20 26 11 14 1010.6 - 2.6
25/02:00am 26.0 27.5 22.7 82 2.2 ESE 19 24 10 13 1010.8 - 2.6
25/01:30am 26.1 27.7 22.8 82 2.2 ESE 19 24 10 13 1011.0 - 2.6
25/01:00am 26.2 28.1 22.7 81 2.4 ESE 17 20 9 11 1011.5 - 2.6
25/12:30am 26.3 27.6 22.6 80 2.5 ESE 20 26 11 14 1011.7 - 2.6
25/12:00am 26.4 26.8 22.5 79 2.6 ESE 24 28 13 15 1012.3 1012.2 2.6
 
Date/Time
EST
Temp
°C
App
Temp
°C
Dew
Point
Rel
Hum
%
Delta-T
°C
Wind Press
QNH
hPa
Press
MSL
hPa
Rain
since 9 am
mm
Dir
 
Spd
km/h
Gust
km/h
Spd
kts
Gust
kts
24/11:30pm 26.3 28.8 23.2 83 2.1 E 15 20 8 11 1012.7 - 2.6
24/11:00pm 26.3 28.1 23.2 83 2.1 ESE 19 24 10 13 1013.1 - 2.6
24/10:30pm 26.2 28.0 23.3 84 2.0 ESE 19 22 10 12 1013.1 - 2.6
24/10:00pm 26.2 27.5 23.3 84 2.0 SE 22 26 12 14 1013.0 - 2.6
24/09:30pm 25.9 27.6 23.0 84 2.0 ESE 19 24 10 13 1012.6 - 2.6
24/09:00pm 25.7 27.4 23.4 87 1.6 E 20 24 11 13 1012.4 1012.3 2.6
24/08:30pm 25.4 27.2 23.6 90 1.2 ESE 20 28 11 15 1012.1 - 2.6
24/08:00pm 24.3 26.0 21.0 82 2.2 ESE 13 19 7 10 1011.9 - 2.6
24/07:53pm 24.6 22.3 21.3 82 2.2 ESE 35 54 19 29 1011.9 - 2.6
24/07:49pm 26.3 22.5 21.7 76 3.1 ESE 44 54 24 29 1011.6 - 0.2
24/07:30pm 27.2 28.6 22.8 77 3.0 E 20 28 11 15 1011.4 - 0.0
24/07:00pm 27.4 28.8 22.8 76 3.1 ESE 20 24 11 13 1011.3 - 0.0
24/06:30pm 27.5 28.8 22.7 75 3.3 ESE 20 24 11 13 1011.1 - 0.0
24/06:00pm 28.4 29.8 22.9 72 3.7 ESE 20 26 11 14 1010.8 1010.7 0.0
24/05:30pm 28.7 30.2 22.7 70 4.1 ESE 19 24 10 13 1010.6 - 0.0
24/05:00pm 29.8 31.2 22.5 65 5.0 ESE 19 24 10 13 1010.5 - 0.0
24/04:30pm 29.7 31.0 22.7 66 4.8 ESE 20 26 11 14 1010.5 - 0.0
24/04:00pm 30.5 31.6 22.4 62 5.5 E 20 26 11 14 1010.4 - 0.0
24/03:30pm 31.1 32.3 22.1 58 6.1 E 19 26 10 14 1010.5 - 0.0
24/03:00pm 31.3 32.4 22.3 58 6.1 E 20 26 11 14 1010.8 1010.7 0.0
24/02:30pm 31.4 31.6 21.3 55 6.8 E 22 28 12 15 1011.1 - 0.0
24/02:00pm 31.5 32.5 22.2 57 6.3 ESE 20 28 11 15 1011.3 - 0.0
24/01:30pm 31.6 32.9 22.6 59 6.2 ESE 20 26 11 14 1011.5 - 0.0
24/01:00pm 31.7 33.7 23.0 60 6.0 ESE 17 22 9 12 1012.0 - 0.0
24/12:30pm 31.3 32.6 22.6 60 5.9 ESE 20 26 11 14 1012.3 - 0.0
24/12:00pm 31.7 33.0 22.4 58 6.3 ESE 19 24 10 13 1012.6 1012.5 0.0
24/11:30am 31.2 32.7 23.0 61 5.6 ESE 20 26 11 14 1012.6 - 0.0
24/11:00am 31.0 32.3 22.6 61 5.7 ESE 20 26 11 14 1013.0 - 0.0
24/10:30am 30.7 32.1 22.8 62 5.4 ESE 20 26 11 14 1013.2 - 0.0
24/10:00am 31.0 33.0 22.9 62 5.6 E 17 20 9 11 1013.4 - 0.0
24/09:30am 30.6 32.5 22.7 62 5.4 ESE 17 20 9 11 1013.5 - 0.0
24/09:00am 30.4 32.6 23.3 66 4.9 ESE 17 22 9 12 1013.4 1013.3 0.2
24/08:30am 29.5 30.9 22.5 66 4.8 ESE 19 22 10 12 1013.2 - 0.2
24/08:00am 29.4 31.2 22.6 67 4.6 ESE 17 20 9 11 1013.1 - 0.2
24/07:30am 28.5 30.3 23.2 73 3.6 ESE 19 22 10 12 1012.7 - 0.0
24/07:00am 27.3 29.0 23.1 78 2.9 ESE 19 22 10 12 1012.4 - 0.0
24/06:30am 27.0 29.2 23.3 80 2.5 ESE 17 22 9 12 1012.2 - 0.0
24/06:00am 26.1 28.0 23.4 85 1.8 E 19 24 10 13 1011.7 1011.6 0.0
24/05:30am 25.8 27.1 22.7 83 2.1 ESE 20 26 11 14 1011.6 - 0.0
24/05:00am 25.7 26.6 22.6 83 2.1 ESE 22 26 12 14 1011.5 - 0.0
24/04:30am 26.0 28.3 22.7 82 2.2 E 15 20 8 11 1011.5 - 0.0
24/04:00am 26.0 27.2 22.5 81 2.4 ESE 20 24 11 13 1011.5 - 0.0
24/03:30am 26.1 27.2 22.4 80 2.5 ESE 20 26 11 14 1011.7 - 0.0
24/03:00am 26.1 27.5 22.6 81 2.4 ESE 19 20 10 11 1011.9 1011.8 0.0
24/02:30am 26.2 27.6 22.5 80 2.5 E 19 26 10 14 1012.1 - 0.0
24/02:00am 26.3 27.7 22.8 81 2.4 ESE 20 24 11 13 1012.1 - 0.0
24/01:30am 26.3 27.4 22.4 79 2.6 E 20 26 11 14 1012.2 - 0.0
24/01:00am 26.4 27.8 22.9 81 2.4 ESE 20 24 11 13 1012.5 - 0.0
24/12:30am 26.6 28.0 22.9 80 2.5 ESE 20 24 11 13 1013.0 - 0.0
24/12:00am 26.6 28.3 23.1 81 2.4 ESE 19 24 10 13 1013.5 1013.4 0.0
 
Date/Time
EST
Temp
°C
App
Temp
°C
Dew
Point
Rel
Hum
%
Delta-T
°C
Wind Press
QNH
hPa
Press
MSL
hPa
Rain
since 9 am
mm
Dir
 
Spd
km/h
Gust
km/h
Spd
kts
Gust
kts
23/11:30pm 26.7 28.5 23.2 81 2.4 E 19 22 10 12 1013.9 - 0.0
23/11:00pm 26.8 28.2 22.8 79 2.7 ESE 20 24 11 13 1014.0 - 0.0
23/10:30pm 26.8 28.9 23.1 80 2.5 ESE 17 20 9 11 1014.1 - 0.0
23/10:00pm 26.9 28.2 22.7 78 2.8 ESE 20 24 11 13 1014.0 - 0.0
23/09:30pm 26.9 28.3 22.9 79 2.7 ESE 20 26 11 14 1013.6 - 0.0
23/09:00pm 26.9 28.9 22.9 79 2.7 ESE 17 22 9 12 1013.7 1013.6 0.0
23/08:30pm 26.9 28.4 22.7 78 2.8 ESE 19 22 10 12 1013.6 - 0.0
23/08:00pm 27.0 28.8 22.6 77 3.0 ESE 17 20 9 11 1013.2 - 0.0
23/07:30pm 27.1 29.1 22.9 78 2.9 ESE 17 24 9 13 1012.9 - 0.0
23/07:00pm 27.1 29.0 22.7 77 3.0 ESE 17 20 9 11 1012.4 - 0.0
23/06:30pm 27.3 29.1 22.5 75 3.2 ESE 17 20 9 11 1012.1 - 0.0
23/06:00pm 28.2 29.7 22.7 72 3.7 ESE 19 24 10 13 1011.8 1011.7 0.0
23/05:30pm 28.7 29.8 22.4 68 4.3 ESE 20 26 11 14 1011.7 - 0.0
23/05:00pm 29.2 30.3 22.4 66 4.6 ESE 20 26 11 14 1011.4 - 0.0

Other Formats:

Comma delimited format used in spreadsheet applications
http://www.bom.gov.au/fwo/IDQ60801/IDQ60801.94285.axf

JavaScript Object Notation format (JSON) in row-major order
http://www.bom.gov.au/fwo/IDQ60801/IDQ60801.94285.json